sensor_id;sensor_type;location;lat;lon;timestamp;P1;durP1;ratioP1;P2;durP2;ratioP2
26034;SDS011;13809;48.632;11.576;2023-07-31T00:01:46;1.83;;;1.17;;
26034;SDS011;13809;48.632;11.576;2023-07-31T00:06:49;1.67;;;1.40;;
26034;SDS011;13809;48.632;11.576;2023-07-31T00:11:55;1.30;;;1.20;;
26034;SDS011;13809;48.632;11.576;2023-07-31T00:16:58;2.13;;;1.30;;
26034;SDS011;13809;48.632;11.576;2023-07-31T00:22:01;1.47;;;1.37;;
26034;SDS011;13809;48.632;11.576;2023-07-31T00:27:07;3.10;;;1.40;;
26034;SDS011;13809;48.632;11.576;2023-07-31T00:32:11;3.20;;;1.40;;
26034;SDS011;13809;48.632;11.576;2023-07-31T00:37:14;1.93;;;1.30;;
26034;SDS011;13809;48.632;11.576;2023-07-31T00:42:21;2.57;;;1.50;;
26034;SDS011;13809;48.632;11.576;2023-07-31T00:47:24;1.80;;;1.70;;
26034;SDS011;13809;48.632;11.576;2023-07-31T00:52:27;2.03;;;1.67;;
26034;SDS011;13809;48.632;11.576;2023-07-31T00:57:32;2.37;;;1.60;;
26034;SDS011;13809;48.632;11.576;2023-07-31T01:02:37;2.33;;;1.63;;
26034;SDS011;13809;48.632;11.576;2023-07-31T01:07:42;4.07;;;1.70;;
26034;SDS011;13809;48.632;11.576;2023-07-31T01:12:53;1.77;;;1.50;;
26034;SDS011;13809;48.632;11.576;2023-07-31T01:17:57;1.53;;;1.43;;
26034;SDS011;13809;48.632;11.576;2023-07-31T01:23:23;2.23;;;1.77;;
26034;SDS011;13809;48.632;11.576;2023-07-31T01:28:40;1.77;;;1.37;;
26034;SDS011;13809;48.632;11.576;2023-07-31T01:33:53;2.77;;;1.53;;
26034;SDS011;13809;48.632;11.576;2023-07-31T01:38:59;2.00;;;1.63;;
26034;SDS011;13809;48.632;11.576;2023-07-31T01:44:04;1.70;;;1.50;;
26034;SDS011;13809;48.632;11.576;2023-07-31T01:49:08;1.60;;;1.50;;
26034;SDS011;13809;48.632;11.576;2023-07-31T01:54:11;2.07;;;1.43;;
26034;SDS011;13809;48.632;11.576;2023-07-31T01:59:15;2.10;;;1.50;;
26034;SDS011;13809;48.632;11.576;2023-07-31T02:04:18;1.47;;;1.37;;
26034;SDS011;13809;48.632;11.576;2023-07-31T02:09:21;4.23;;;1.60;;
26034;SDS011;13809;48.632;11.576;2023-07-31T02:14:26;1.57;;;1.30;;
26034;SDS011;13809;48.632;11.576;2023-07-31T02:19:29;1.80;;;1.70;;
26034;SDS011;13809;48.632;11.576;2023-07-31T02:24:32;3.87;;;1.40;;
26034;SDS011;13809;48.632;11.576;2023-07-31T02:29:37;1.50;;;1.40;;
26034;SDS011;13809;48.632;11.576;2023-07-31T02:34:40;1.70;;;1.30;;
26034;SDS011;13809;48.632;11.576;2023-07-31T02:39:43;3.33;;;1.30;;
26034;SDS011;13809;48.632;11.576;2023-07-31T02:44:48;2.20;;;1.40;;
26034;SDS011;13809;48.632;11.576;2023-07-31T02:49:53;2.17;;;1.30;;
26034;SDS011;13809;48.632;11.576;2023-07-31T02:54:57;2.57;;;1.70;;
26034;SDS011;13809;48.632;11.576;2023-07-31T03:00:02;3.00;;;1.80;;
26034;SDS011;13809;48.632;11.576;2023-07-31T03:05:07;2.40;;;1.10;;
26034;SDS011;13809;48.632;11.576;2023-07-31T03:10:11;1.43;;;1.33;;
26034;SDS011;13809;48.632;11.576;2023-07-31T03:15:15;1.67;;;1.40;;
26034;SDS011;13809;48.632;11.576;2023-07-31T03:20:18;2.37;;;1.23;;
26034;SDS011;13809;48.632;11.576;2023-07-31T03:25:22;1.80;;;1.40;;
26034;SDS011;13809;48.632;11.576;2023-07-31T03:30:27;1.57;;;1.47;;
26034;SDS011;13809;48.632;11.576;2023-07-31T03:35:30;1.30;;;1.20;;
26034;SDS011;13809;48.632;11.576;2023-07-31T03:40:33;3.30;;;1.40;;
26034;SDS011;13809;48.632;11.576;2023-07-31T03:45:37;1.37;;;1.27;;
26034;SDS011;13809;48.632;11.576;2023-07-31T03:50:42;2.97;;;1.60;;
26034;SDS011;13809;48.632;11.576;2023-07-31T03:55:46;1.50;;;1.27;;
26034;SDS011;13809;48.632;11.576;2023-07-31T04:00:50;2.20;;;1.50;;
26034;SDS011;13809;48.632;11.576;2023-07-31T04:05:54;1.70;;;1.60;;
26034;SDS011;13809;48.632;11.576;2023-07-31T04:10:57;3.80;;;1.50;;
26034;SDS011;13809;48.632;11.576;2023-07-31T04:16:02;2.07;;;1.70;;
26034;SDS011;13809;48.632;11.576;2023-07-31T04:21:06;1.70;;;1.37;;
26034;SDS011;13809;48.632;11.576;2023-07-31T04:26:10;2.00;;;1.60;;
26034;SDS011;13809;48.632;11.576;2023-07-31T04:31:14;3.20;;;1.63;;
26034;SDS011;13809;48.632;11.576;2023-07-31T04:36:18;3.83;;;1.80;;
26034;SDS011;13809;48.632;11.576;2023-07-31T04:41:21;1.90;;;1.40;;
26034;SDS011;13809;48.632;11.576;2023-07-31T04:46:27;3.93;;;1.80;;
26034;SDS011;13809;48.632;11.576;2023-07-31T04:51:30;3.13;;;1.80;;
26034;SDS011;13809;48.632;11.576;2023-07-31T04:56:33;1.77;;;1.67;;
26034;SDS011;13809;48.632;11.576;2023-07-31T05:01:38;2.80;;;1.83;;
26034;SDS011;13809;48.632;11.576;2023-07-31T05:06:41;2.43;;;1.80;;
26034;SDS011;13809;48.632;11.576;2023-07-31T05:11:45;1.80;;;1.70;;
26034;SDS011;13809;48.632;11.576;2023-07-31T05:16:49;3.10;;;1.93;;
26034;SDS011;13809;48.632;11.576;2023-07-31T05:21:52;2.83;;;1.80;;
26034;SDS011;13809;48.632;11.576;2023-07-31T05:26:56;3.10;;;2.00;;
26034;SDS011;13809;48.632;11.576;2023-07-31T05:32:00;3.10;;;2.07;;
26034;SDS011;13809;48.632;11.576;2023-07-31T05:37:04;2.10;;;1.90;;
26034;SDS011;13809;48.632;11.576;2023-07-31T05:42:08;3.93;;;1.77;;
26034;SDS011;13809;48.632;11.576;2023-07-31T05:47:12;2.57;;;1.77;;
26034;SDS011;13809;48.632;11.576;2023-07-31T05:52:16;1.60;;;1.50;;
26034;SDS011;13809;48.632;11.576;2023-07-31T05:57:19;3.63;;;1.87;;
26034;SDS011;13809;48.632;11.576;2023-07-31T06:02:24;1.93;;;1.70;;
26034;SDS011;13809;48.632;11.576;2023-07-31T06:07:27;2.00;;;1.50;;
26034;SDS011;13809;48.632;11.576;2023-07-31T06:12:32;1.90;;;1.70;;
26034;SDS011;13809;48.632;11.576;2023-07-31T06:17:36;3.13;;;1.70;;
26034;SDS011;13809;48.632;11.576;2023-07-31T06:22:40;1.90;;;1.73;;
26034;SDS011;13809;48.632;11.576;2023-07-31T06:27:43;2.37;;;1.90;;
26034;SDS011;13809;48.632;11.576;2023-07-31T06:32:47;2.10;;;1.70;;
26034;SDS011;13809;48.632;11.576;2023-07-31T06:37:50;2.90;;;2.03;;
26034;SDS011;13809;48.632;11.576;2023-07-31T06:42:55;1.70;;;1.60;;
26034;SDS011;13809;48.632;11.576;2023-07-31T06:47:59;2.77;;;1.80;;
26034;SDS011;13809;48.632;11.576;2023-07-31T06:53:03;2.57;;;1.80;;
26034;SDS011;13809;48.632;11.576;2023-07-31T06:58:06;2.17;;;1.63;;
26034;SDS011;13809;48.632;11.576;2023-07-31T07:03:11;2.80;;;1.70;;
26034;SDS011;13809;48.632;11.576;2023-07-31T07:08:16;1.97;;;1.60;;
26034;SDS011;13809;48.632;11.576;2023-07-31T08:08:30;2.30;;;1.60;;
26034;SDS011;13809;48.632;11.576;2023-07-31T08:13:33;2.13;;;1.70;;
26034;SDS011;13809;48.632;11.576;2023-07-31T08:18:38;2.03;;;1.60;;
26034;SDS011;13809;48.632;11.576;2023-07-31T08:23:43;1.97;;;1.80;;
26034;SDS011;13809;48.632;11.576;2023-07-31T08:28:52;4.10;;;2.17;;
26034;SDS011;13809;48.632;11.576;2023-07-31T08:33:55;2.30;;;1.80;;
26034;SDS011;13809;48.632;11.576;2023-07-31T08:39:00;1.70;;;1.60;;
26034;SDS011;13809;48.632;11.576;2023-07-31T08:44:04;2.20;;;2.00;;
26034;SDS011;13809;48.632;11.576;2023-07-31T08:49:08;2.63;;;1.80;;
26034;SDS011;13809;48.632;11.576;2023-07-31T08:54:14;1.90;;;1.70;;
26034;SDS011;13809;48.632;11.576;2023-07-31T08:59:17;3.83;;;1.90;;
26034;SDS011;13809;48.632;11.576;2023-07-31T09:04:22;1.90;;;1.70;;
26034;SDS011;13809;48.632;11.576;2023-07-31T09:09:28;2.23;;;1.63;;
26034;SDS011;13809;48.632;11.576;2023-07-31T09:14:31;3.33;;;2.20;;
26034;SDS011;13809;48.632;11.576;2023-07-31T09:19:36;2.70;;;2.00;;
26034;SDS011;13809;48.632;11.576;2023-07-31T09:24:41;3.47;;;2.27;;
26034;SDS011;13809;48.632;11.576;2023-07-31T09:29:44;2.70;;;2.00;;
26034;SDS011;13809;48.632;11.576;2023-07-31T09:35:00;2.30;;;2.00;;
26034;SDS011;13809;48.632;11.576;2023-07-31T09:40:09;2.10;;;1.90;;
26034;SDS011;13809;48.632;11.576;2023-07-31T09:45:28;2.67;;;1.90;;
26034;SDS011;13809;48.632;11.576;2023-07-31T09:50:43;2.07;;;1.90;;
26034;SDS011;13809;48.632;11.576;2023-07-31T09:55:49;1.93;;;1.70;;
26034;SDS011;13809;48.632;11.576;2023-07-31T10:00:52;2.13;;;1.83;;
26034;SDS011;13809;48.632;11.576;2023-07-31T10:05:56;2.03;;;1.67;;
26034;SDS011;13809;48.632;11.576;2023-07-31T10:11:02;2.27;;;2.07;;
26034;SDS011;13809;48.632;11.576;2023-07-31T10:16:07;2.00;;;1.80;;
26034;SDS011;13809;48.632;11.576;2023-07-31T10:21:11;2.53;;;1.80;;
26034;SDS011;13809;48.632;11.576;2023-07-31T10:26:18;1.80;;;1.70;;
26034;SDS011;13809;48.632;11.576;2023-07-31T10:31:22;2.67;;;1.90;;
26034;SDS011;13809;48.632;11.576;2023-07-31T10:36:26;3.00;;;1.80;;
26034;SDS011;13809;48.632;11.576;2023-07-31T10:41:30;2.03;;;1.83;;
26034;SDS011;13809;48.632;11.576;2023-07-31T10:46:34;7.33;;;2.20;;
26034;SDS011;13809;48.632;11.576;2023-07-31T10:51:39;3.30;;;2.30;;
26034;SDS011;13809;48.632;11.576;2023-07-31T10:56:46;2.07;;;1.70;;
26034;SDS011;13809;48.632;11.576;2023-07-31T11:01:49;3.37;;;2.07;;
26034;SDS011;13809;48.632;11.576;2023-07-31T11:06:57;2.10;;;1.80;;
26034;SDS011;13809;48.632;11.576;2023-07-31T11:12:02;3.07;;;1.90;;
26034;SDS011;13809;48.632;11.576;2023-07-31T11:17:06;2.03;;;1.80;;
26034;SDS011;13809;48.632;11.576;2023-07-31T11:22:10;2.17;;;1.97;;
26034;SDS011;13809;48.632;11.576;2023-07-31T11:27:15;2.23;;;2.03;;
26034;SDS011;13809;48.632;11.576;2023-07-31T11:32:18;3.17;;;2.03;;
26034;SDS011;13809;48.632;11.576;2023-07-31T11:37:22;2.70;;;2.03;;
26034;SDS011;13809;48.632;11.576;2023-07-31T11:42:26;3.30;;;2.10;;
26034;SDS011;13809;48.632;11.576;2023-07-31T11:47:30;2.77;;;2.00;;
26034;SDS011;13809;48.632;11.576;2023-07-31T11:52:37;2.43;;;1.90;;
26034;SDS011;13809;48.632;11.576;2023-07-31T11:57:45;2.87;;;1.97;;
26034;SDS011;13809;48.632;11.576;2023-07-31T12:02:50;2.07;;;1.90;;
26034;SDS011;13809;48.632;11.576;2023-07-31T12:07:54;2.63;;;2.10;;
26034;SDS011;13809;48.632;11.576;2023-07-31T12:13:02;2.60;;;2.00;;
26034;SDS011;13809;48.632;11.576;2023-07-31T12:18:08;3.80;;;2.03;;
26034;SDS011;13809;48.632;11.576;2023-07-31T12:23:13;3.20;;;2.00;;
26034;SDS011;13809;48.632;11.576;2023-07-31T12:28:21;4.43;;;2.30;;
26034;SDS011;13809;48.632;11.576;2023-07-31T12:33:29;3.50;;;1.87;;
26034;SDS011;13809;48.632;11.576;2023-07-31T12:38:33;2.17;;;1.80;;
26034;SDS011;13809;48.632;11.576;2023-07-31T12:43:39;2.20;;;1.90;;
26034;SDS011;13809;48.632;11.576;2023-07-31T12:48:43;2.20;;;1.90;;
26034;SDS011;13809;48.632;11.576;2023-07-31T12:53:46;3.43;;;2.27;;
26034;SDS011;13809;48.632;11.576;2023-07-31T12:58:51;2.03;;;1.90;;
26034;SDS011;13809;48.632;11.576;2023-07-31T13:03:54;2.63;;;1.80;;
26034;SDS011;13809;48.632;11.576;2023-07-31T13:08:57;3.03;;;2.03;;
26034;SDS011;13809;48.632;11.576;2023-07-31T13:14:02;2.03;;;1.93;;
26034;SDS011;13809;48.632;11.576;2023-07-31T13:19:05;3.07;;;2.10;;
26034;SDS011;13809;48.632;11.576;2023-07-31T13:24:08;1.97;;;1.83;;
26034;SDS011;13809;48.632;11.576;2023-07-31T13:29:13;2.53;;;1.77;;
26034;SDS011;13809;48.632;11.576;2023-07-31T13:34:16;2.40;;;1.87;;
26034;SDS011;13809;48.632;11.576;2023-07-31T13:39:20;1.87;;;1.77;;
26034;SDS011;13809;48.632;11.576;2023-07-31T13:44:24;2.10;;;1.90;;
26034;SDS011;13809;48.632;11.576;2023-07-31T13:49:28;2.80;;;1.77;;
26034;SDS011;13809;48.632;11.576;2023-07-31T13:54:31;1.83;;;1.73;;
26034;SDS011;13809;48.632;11.576;2023-07-31T13:59:36;3.27;;;2.30;;
26034;SDS011;13809;48.632;11.576;2023-07-31T14:04:39;2.80;;;2.23;;
26034;SDS011;13809;48.632;11.576;2023-07-31T14:09:42;3.50;;;2.20;;
26034;SDS011;13809;48.632;11.576;2023-07-31T14:14:46;2.50;;;2.20;;
26034;SDS011;13809;48.632;11.576;2023-07-31T14:19:50;2.60;;;2.13;;
26034;SDS011;13809;48.632;11.576;2023-07-31T14:24:53;2.60;;;2.40;;
26034;SDS011;13809;48.632;11.576;2023-07-31T14:29:58;2.23;;;2.00;;
26034;SDS011;13809;48.632;11.576;2023-07-31T14:35:01;2.87;;;2.30;;
26034;SDS011;13809;48.632;11.576;2023-07-31T14:40:07;4.13;;;2.10;;
26034;SDS011;13809;48.632;11.576;2023-07-31T14:45:13;3.43;;;2.10;;
26034;SDS011;13809;48.632;11.576;2023-07-31T14:50:17;3.10;;;2.03;;
26034;SDS011;13809;48.632;11.576;2023-07-31T14:55:22;2.47;;;2.20;;
26034;SDS011;13809;48.632;11.576;2023-07-31T15:00:27;2.60;;;2.37;;
26034;SDS011;13809;48.632;11.576;2023-07-31T15:05:30;2.90;;;2.70;;
26034;SDS011;13809;48.632;11.576;2023-07-31T15:10:35;2.47;;;2.10;;
26034;SDS011;13809;48.632;11.576;2023-07-31T15:15:39;3.60;;;2.50;;
26034;SDS011;13809;48.632;11.576;2023-07-31T15:20:42;4.30;;;2.30;;
26034;SDS011;13809;48.632;11.576;2023-07-31T15:25:45;3.83;;;2.50;;
26034;SDS011;13809;48.632;11.576;2023-07-31T15:30:50;2.57;;;2.37;;
26034;SDS011;13809;48.632;11.576;2023-07-31T15:35:53;3.20;;;2.03;;
26034;SDS011;13809;48.632;11.576;2023-07-31T15:40:57;2.53;;;2.20;;
26034;SDS011;13809;48.632;11.576;2023-07-31T15:46:01;2.50;;;2.30;;
26034;SDS011;13809;48.632;11.576;2023-07-31T15:51:05;4.80;;;2.63;;
26034;SDS011;13809;48.632;11.576;2023-07-31T15:56:11;4.13;;;2.70;;
26034;SDS011;13809;48.632;11.576;2023-07-31T16:01:16;3.07;;;2.50;;
26034;SDS011;13809;48.632;11.576;2023-07-31T16:06:19;2.97;;;2.63;;
26034;SDS011;13809;48.632;11.576;2023-07-31T16:11:22;3.27;;;2.50;;
26034;SDS011;13809;48.632;11.576;2023-07-31T16:16:27;2.47;;;2.27;;
26034;SDS011;13809;48.632;11.576;2023-07-31T16:21:31;2.17;;;1.97;;
26034;SDS011;13809;48.632;11.576;2023-07-31T16:26:34;2.40;;;2.20;;
26034;SDS011;13809;48.632;11.576;2023-07-31T16:31:38;2.30;;;2.10;;
26034;SDS011;13809;48.632;11.576;2023-07-31T16:36:57;2.23;;;2.10;;
26034;SDS011;13809;48.632;11.576;2023-07-31T16:42:00;3.07;;;2.40;;
26034;SDS011;13809;48.632;11.576;2023-07-31T16:47:05;2.13;;;2.00;;
26034;SDS011;13809;48.632;11.576;2023-07-31T16:52:08;2.80;;;2.50;;
26034;SDS011;13809;48.632;11.576;2023-07-31T16:57:11;2.47;;;2.27;;
26034;SDS011;13809;48.632;11.576;2023-07-31T17:02:16;3.17;;;2.30;;
26034;SDS011;13809;48.632;11.576;2023-07-31T17:07:21;3.80;;;2.10;;
26034;SDS011;13809;48.632;11.576;2023-07-31T17:12:26;2.53;;;2.20;;
26034;SDS011;13809;48.632;11.576;2023-07-31T17:17:30;2.73;;;2.20;;
26034;SDS011;13809;48.632;11.576;2023-07-31T17:22:33;4.60;;;2.33;;
26034;SDS011;13809;48.632;11.576;2023-07-31T17:27:49;2.87;;;2.30;;
26034;SDS011;13809;48.632;11.576;2023-07-31T17:32:55;3.43;;;2.47;;
26034;SDS011;13809;48.632;11.576;2023-07-31T17:37:58;3.43;;;2.30;;
26034;SDS011;13809;48.632;11.576;2023-07-31T17:43:02;2.57;;;2.37;;
26034;SDS011;13809;48.632;11.576;2023-07-31T17:48:06;2.57;;;2.37;;
26034;SDS011;13809;48.632;11.576;2023-07-31T17:53:10;2.60;;;2.40;;
26034;SDS011;13809;48.632;11.576;2023-07-31T17:58:13;3.23;;;2.43;;
26034;SDS011;13809;48.632;11.576;2023-07-31T18:03:17;3.00;;;2.80;;
26034;SDS011;13809;48.632;11.576;2023-07-31T18:08:22;3.00;;;2.70;;
26034;SDS011;13809;48.632;11.576;2023-07-31T18:13:26;2.53;;;2.33;;
26034;SDS011;13809;48.632;11.576;2023-07-31T18:18:30;2.90;;;2.60;;
26034;SDS011;13809;48.632;11.576;2023-07-31T18:23:33;4.47;;;2.70;;
26034;SDS011;13809;48.632;11.576;2023-07-31T18:28:39;4.40;;;2.60;;
26034;SDS011;13809;48.632;11.576;2023-07-31T18:33:44;3.67;;;2.60;;
26034;SDS011;13809;48.632;11.576;2023-07-31T18:38:47;2.97;;;2.60;;
26034;SDS011;13809;48.632;11.576;2023-07-31T18:43:50;3.27;;;2.60;;
26034;SDS011;13809;48.632;11.576;2023-07-31T18:48:55;2.47;;;2.27;;
26034;SDS011;13809;48.632;11.576;2023-07-31T18:53:58;4.20;;;3.30;;
26034;SDS011;13809;48.632;11.576;2023-07-31T18:59:01;5.83;;;3.13;;
26034;SDS011;13809;48.632;11.576;2023-07-31T19:04:06;5.47;;;3.53;;
26034;SDS011;13809;48.632;11.576;2023-07-31T19:09:09;3.47;;;3.10;;
26034;SDS011;13809;48.632;11.576;2023-07-31T19:14:13;3.90;;;3.10;;
26034;SDS011;13809;48.632;11.576;2023-07-31T19:19:18;4.90;;;3.20;;
26034;SDS011;13809;48.632;11.576;2023-07-31T19:24:21;10.07;;;7.47;;
26034;SDS011;13809;48.632;11.576;2023-07-31T19:29:35;9.70;;;6.67;;
26034;SDS011;13809;48.632;11.576;2023-07-31T19:34:40;4.97;;;4.30;;
26034;SDS011;13809;48.632;11.576;2023-07-31T19:39:43;4.03;;;3.50;;
26034;SDS011;13809;48.632;11.576;2023-07-31T19:44:48;4.00;;;3.07;;
26034;SDS011;13809;48.632;11.576;2023-07-31T19:49:53;5.03;;;2.87;;
26034;SDS011;13809;48.632;11.576;2023-07-31T19:54:56;3.87;;;2.80;;
26034;SDS011;13809;48.632;11.576;2023-07-31T19:59:59;3.57;;;2.70;;
26034;SDS011;13809;48.632;11.576;2023-07-31T20:05:06;3.47;;;3.03;;
26034;SDS011;13809;48.632;11.576;2023-07-31T20:10:09;3.20;;;2.90;;
26034;SDS011;13809;48.632;11.576;2023-07-31T20:15:19;3.00;;;2.70;;
26034;SDS011;13809;48.632;11.576;2023-07-31T20:20:24;3.63;;;2.73;;
26034;SDS011;13809;48.632;11.576;2023-07-31T20:25:28;3.33;;;2.63;;
26034;SDS011;13809;48.632;11.576;2023-07-31T20:30:34;3.07;;;2.30;;
26034;SDS011;13809;48.632;11.576;2023-07-31T20:35:38;3.97;;;2.97;;
26034;SDS011;13809;48.632;11.576;2023-07-31T20:40:42;4.50;;;2.70;;
26034;SDS011;13809;48.632;11.576;2023-07-31T20:45:47;3.50;;;2.80;;
26034;SDS011;13809;48.632;11.576;2023-07-31T20:50:52;3.43;;;2.80;;
26034;SDS011;13809;48.632;11.576;2023-07-31T20:55:55;3.00;;;2.60;;
26034;SDS011;13809;48.632;11.576;2023-07-31T21:00:59;3.10;;;2.80;;
26034;SDS011;13809;48.632;11.576;2023-07-31T21:06:04;2.70;;;2.50;;
26034;SDS011;13809;48.632;11.576;2023-07-31T21:11:07;3.93;;;2.20;;
26034;SDS011;13809;48.632;11.576;2023-07-31T21:16:10;3.87;;;2.50;;
26034;SDS011;13809;48.632;11.576;2023-07-31T21:21:15;3.30;;;2.63;;
26034;SDS011;13809;48.632;11.576;2023-07-31T21:26:18;3.10;;;2.77;;
26034;SDS011;13809;48.632;11.576;2023-07-31T21:31:21;3.23;;;2.77;;
26034;SDS011;13809;48.632;11.576;2023-07-31T21:36:26;3.40;;;2.80;;
26034;SDS011;13809;48.632;11.576;2023-07-31T21:41:29;4.67;;;2.60;;
26034;SDS011;13809;48.632;11.576;2023-07-31T21:46:32;2.80;;;2.27;;
26034;SDS011;13809;48.632;11.576;2023-07-31T21:51:37;4.40;;;2.83;;
26034;SDS011;13809;48.632;11.576;2023-07-31T21:56:40;3.00;;;2.70;;
26034;SDS011;13809;48.632;11.576;2023-07-31T22:01:43;3.40;;;3.00;;
26034;SDS011;13809;48.632;11.576;2023-07-31T22:06:51;3.00;;;2.70;;
26034;SDS011;13809;48.632;11.576;2023-07-31T22:11:54;3.97;;;3.00;;
26034;SDS011;13809;48.632;11.576;2023-07-31T22:16:57;3.97;;;3.00;;
26034;SDS011;13809;48.632;11.576;2023-07-31T22:22:02;3.43;;;2.97;;
26034;SDS011;13809;48.632;11.576;2023-07-31T22:27:06;3.20;;;2.87;;
26034;SDS011;13809;48.632;11.576;2023-07-31T22:32:09;3.00;;;2.80;;
26034;SDS011;13809;48.632;11.576;2023-07-31T22:37:13;3.13;;;2.80;;
26034;SDS011;13809;48.632;11.576;2023-07-31T22:42:17;2.90;;;2.60;;
26034;SDS011;13809;48.632;11.576;2023-07-31T22:47:20;5.77;;;2.70;;
26034;SDS011;13809;48.632;11.576;2023-07-31T22:52:24;3.70;;;2.70;;
26034;SDS011;13809;48.632;11.576;2023-07-31T22:57:27;3.20;;;2.40;;
26034;SDS011;13809;48.632;11.576;2023-07-31T23:02:31;3.73;;;2.87;;
26034;SDS011;13809;48.632;11.576;2023-07-31T23:07:35;3.57;;;2.90;;
26034;SDS011;13809;48.632;11.576;2023-07-31T23:12:38;3.97;;;2.80;;
26034;SDS011;13809;48.632;11.576;2023-07-31T23:17:41;3.50;;;3.20;;
26034;SDS011;13809;48.632;11.576;2023-07-31T23:22:46;2.57;;;2.37;;
26034;SDS011;13809;48.632;11.576;2023-07-31T23:27:49;3.87;;;2.83;;
26034;SDS011;13809;48.632;11.576;2023-07-31T23:32:52;5.20;;;3.03;;
26034;SDS011;13809;48.632;11.576;2023-07-31T23:37:57;5.37;;;3.37;;
26034;SDS011;13809;48.632;11.576;2023-07-31T23:43:00;3.47;;;3.00;;
26034;SDS011;13809;48.632;11.576;2023-07-31T23:48:04;4.90;;;2.97;;
26034;SDS011;13809;48.632;11.576;2023-07-31T23:53:08;4.23;;;2.77;;
26034;SDS011;13809;48.632;11.576;2023-07-31T23:58:12;3.63;;;3.17;;
